createdAt,value
2023-03-08T00:00:27.246Z,12.32
2023-03-08T00:02:29.938Z,11.82
2023-03-08T00:04:32.688Z,9.57
2023-03-08T00:06:35.894Z,13.07
2023-03-08T00:08:40.094Z,10.93
2023-03-08T00:10:42.823Z,11.05
2023-03-08T00:12:45.563Z,11.20
2023-03-08T00:14:48.632Z,11.50
2023-03-08T00:16:51.332Z,11.15
2023-03-08T00:18:54.187Z,10.85
2023-03-08T00:21:01.078Z,12.32
2023-03-08T00:23:03.933Z,11.18
2023-03-08T00:25:10.429Z,11.35
2023-03-08T00:27:13.150Z,12.57
2023-03-08T00:29:16.168Z,14.75
2023-03-08T00:31:18.987Z,15.48
2023-03-08T00:33:21.696Z,11.85
2023-03-08T00:35:24.443Z,12.27
2023-03-08T00:37:27.182Z,11.07
2023-03-08T00:39:29.878Z,10.40
2023-03-08T00:41:35.162Z,9.07
2023-03-08T00:43:38.375Z,11.02
2023-03-08T00:45:41.102Z,11.32
2023-03-08T00:47:43.803Z,11.77
2023-03-08T00:49:46.615Z,10.70
2023-03-08T00:51:50.779Z,12.30
2023-03-08T00:53:53.678Z,13.05
2023-03-08T00:55:59.790Z,12.15
2023-03-08T00:58:06.841Z,10.80
2023-03-08T01:00:12.854Z,10.32
2023-03-08T01:02:15.939Z,12.48
2023-03-08T01:04:18.734Z,12.63
2023-03-08T01:06:21.534Z,11.57
2023-03-08T01:08:26.473Z,11.70
2023-03-08T01:10:29.129Z,13.30
2023-03-08T01:12:33.056Z,11.27
2023-03-08T01:14:38.497Z,11.93
2023-03-08T01:16:42.857Z,17.40
2023-03-08T01:18:45.580Z,12.45
2023-03-08T01:20:56.525Z,10.52
2023-03-08T01:22:59.659Z,11.80
2023-03-08T01:25:02.464Z,11.55
2023-03-08T01:27:05.287Z,11.55
2023-03-08T01:29:08.263Z,11.00
2023-03-08T01:31:23.120Z,10.75
2023-03-08T01:33:27.715Z,10.73
2023-03-08T01:35:30.657Z,13.10
2023-03-08T01:37:34.305Z,14.15
2023-03-08T01:39:37.140Z,11.05
2023-03-08T01:41:40.038Z,11.73
2023-03-08T01:43:43.286Z,11.68
2023-03-08T01:46:06.763Z,11.93
2023-03-08T01:48:12.427Z,10.35
2023-03-08T01:50:40.970Z,11.50
2023-03-08T01:52:47.716Z,11.23
2023-03-08T01:54:54.323Z,10.75
2023-03-08T01:57:02.590Z,14.40
2023-03-08T01:59:05.622Z,13.95
2023-03-08T02:01:11.431Z,12.73
2023-03-08T02:03:15.712Z,13.50
2023-03-08T02:05:20.466Z,15.93
2023-03-08T02:07:26.769Z,15.30
2023-03-08T02:09:30.045Z,39.35
2023-03-08T02:11:37.479Z,28.02
2023-03-08T02:13:40.880Z,23.08
2023-03-08T02:15:44.243Z,36.90
2023-03-08T02:17:47.798Z,33.42
2023-03-08T02:19:56.994Z,35.58
2023-03-08T02:21:59.862Z,23.80
2023-03-08T02:24:08.055Z,29.23
2023-03-08T02:26:10.805Z,18.95
2023-03-08T02:28:13.616Z,11.02
2023-03-08T02:30:23.902Z,13.15
2023-03-08T02:32:26.846Z,9.55
2023-03-08T02:34:29.666Z,10.90
2023-03-08T02:36:34.080Z,13.02
2023-03-08T02:38:36.963Z,12.15
2023-03-08T02:40:41.572Z,12.45
2023-03-08T02:42:45.290Z,11.23
2023-03-08T02:44:48.081Z,12.85
2023-03-08T02:46:53.407Z,10.07
2023-03-08T02:48:56.182Z,12.93
2023-03-08T02:50:58.925Z,10.95
2023-03-08T02:53:01.728Z,15.57
2023-03-08T02:55:04.912Z,12.23
2023-03-08T02:57:09.413Z,13.40
2023-03-08T02:59:13.845Z,12.98
2023-03-08T03:01:18.285Z,14.40
2023-03-08T03:03:21.016Z,13.35
2023-03-08T03:05:26.907Z,13.68
2023-03-08T03:07:29.972Z,12.18
2023-03-08T03:09:32.974Z,12.30
2023-03-08T03:11:35.771Z,12.27
2023-03-08T03:13:39.955Z,14.57
2023-03-08T03:15:43.079Z,14.93
2023-03-08T03:17:45.954Z,11.30
2023-03-08T03:19:48.687Z,11.18
2023-03-08T03:21:51.480Z,10.10
2023-03-08T03:23:55.661Z,11.60
2023-03-08T03:26:06.962Z,10.48
2023-03-08T03:28:10.541Z,11.38
2023-03-08T03:30:15.543Z,11.73
2023-03-08T03:32:19.645Z,10.93
2023-03-08T03:34:22.598Z,9.95
2023-03-08T03:36:26.555Z,11.32
2023-03-08T03:38:29.707Z,12.00
2023-03-08T03:40:32.490Z,11.05
2023-03-08T03:42:38.127Z,9.82
2023-03-08T03:44:46.172Z,9.98
2023-03-08T03:46:54.131Z,8.45
2023-03-08T03:49:00.838Z,10.85
2023-03-08T03:51:12.600Z,9.27
2023-03-08T03:53:19.292Z,10.77
2023-03-08T03:55:22.164Z,10.35
2023-03-08T03:57:26.507Z,10.40
2023-03-08T03:59:29.725Z,10.85
2023-03-08T04:01:33.767Z,8.90
2023-03-08T04:03:45.028Z,10.15
2023-03-08T04:05:47.990Z,10.85
2023-03-08T04:07:51.402Z,11.32
2023-03-08T04:09:55.919Z,11.10
2023-03-08T04:12:02.507Z,12.30
2023-03-08T04:14:07.162Z,10.88
2023-03-08T04:16:11.490Z,12.27
2023-03-08T04:18:14.414Z,11.35
2023-03-08T04:20:21.777Z,10.93
2023-03-08T04:22:30.682Z,11.60
2023-03-08T04:24:41.970Z,11.35
2023-03-08T04:26:50.117Z,11.25
2023-03-08T04:28:55.341Z,10.38
2023-03-08T04:31:01.483Z,11.95
2023-03-08T04:33:04.670Z,13.35
2023-03-08T04:35:16.467Z,10.68
2023-03-08T04:37:23.514Z,11.75
2023-03-08T04:39:30.590Z,11.43
2023-03-08T04:41:33.698Z,11.27
2023-03-08T04:43:47.896Z,14.57
2023-03-08T04:45:52.118Z,12.38
2023-03-08T04:47:54.939Z,14.23
2023-03-08T04:49:58.349Z,11.35
2023-03-08T04:52:01.488Z,13.75
2023-03-08T04:54:06.748Z,12.50
2023-03-08T04:56:15.111Z,11.52
2023-03-08T04:58:19.245Z,10.57
2023-03-08T05:00:23.543Z,12.43
2023-03-08T05:02:27.189Z,11.30
2023-03-08T05:04:29.990Z,11.77
2023-03-08T05:06:32.762Z,10.45
2023-03-08T05:08:35.558Z,13.27
2023-03-08T05:10:39.751Z,13.57
2023-03-08T05:12:43.190Z,11.02
2023-03-08T05:14:45.941Z,10.10
2023-03-08T05:16:48.690Z,11.68
2023-03-08T05:18:51.911Z,13.45
2023-03-08T05:20:59.363Z,13.55
2023-03-08T05:23:03.058Z,12.68
2023-03-08T05:25:12.651Z,12.02
2023-03-08T05:27:16.910Z,11.07
2023-03-08T05:29:21.178Z,13.80
2023-03-08T05:31:24.185Z,13.32
2023-03-08T05:33:29.171Z,12.77
2023-03-08T05:35:31.988Z,13.45
2023-03-08T05:37:34.779Z,12.93
2023-03-08T05:39:40.060Z,13.13
2023-03-08T05:41:51.451Z,14.13
2023-03-08T05:44:03.383Z,12.73
2023-03-08T05:46:11.785Z,13.50
2023-03-08T05:48:14.956Z,12.35
2023-03-08T05:50:18.036Z,14.90
2023-03-08T05:52:22.562Z,13.57
2023-03-08T05:54:26.047Z,13.57
2023-03-08T05:56:32.344Z,14.48
2023-03-08T05:58:46.664Z,14.75
2023-03-08T06:00:52.211Z,15.07
2023-03-08T06:02:55.170Z,15.23
2023-03-08T06:04:58.048Z,14.07
2023-03-08T06:07:02.285Z,15.65
2023-03-08T06:09:10.964Z,21.05
2023-03-08T06:11:17.200Z,16.45
2023-03-08T06:13:23.201Z,17.80
2023-03-08T06:15:26.103Z,20.23
2023-03-08T06:17:30.738Z,18.23
2023-03-08T06:19:35.272Z,17.95
2023-03-08T06:21:38.030Z,17.77
2023-03-08T06:23:41.412Z,17.05
2023-03-08T06:25:45.282Z,16.13
2023-03-08T06:27:48.309Z,18.40
2023-03-08T06:30:03.221Z,17.55
2023-03-08T06:32:08.607Z,17.92
2023-03-08T06:34:14.110Z,16.67
2023-03-08T06:36:19.235Z,16.70
2023-03-08T06:38:22.641Z,15.82
2023-03-08T06:40:25.433Z,16.20
2023-03-08T06:42:40.223Z,16.45
2023-03-08T06:44:44.193Z,19.13
2023-03-08T06:46:46.959Z,21.23
2023-03-08T06:48:50.855Z,19.80
2023-03-08T06:50:55.375Z,17.77
2023-03-08T06:52:58.108Z,18.23
2023-03-08T06:55:14.748Z,16.75
2023-03-08T06:57:17.940Z,15.93
2023-03-08T06:59:20.694Z,17.77
2023-03-08T07:01:23.539Z,15.60
2023-03-08T07:03:27.005Z,19.50
2023-03-08T07:05:29.979Z,20.45
2023-03-08T07:07:35.585Z,18.02
2023-03-08T07:09:38.405Z,18.27
2023-03-08T07:11:41.638Z,17.25
2023-03-08T07:13:44.415Z,17.80
2023-03-08T07:15:47.171Z,16.65
2023-03-08T07:17:52.600Z,15.30
2023-03-08T07:19:55.369Z,14.93
2023-03-08T07:21:58.217Z,15.38
2023-03-08T07:24:02.301Z,18.08
2023-03-08T07:26:06.706Z,17.38
2023-03-08T07:28:09.453Z,15.82
2023-03-08T07:30:13.901Z,14.75
2023-03-08T07:32:16.788Z,17.30
2023-03-08T07:34:19.616Z,17.48
2023-03-08T07:36:22.503Z,14.85
2023-03-08T07:38:25.275Z,15.77
2023-03-08T07:40:29.480Z,16.27
2023-03-08T07:42:32.532Z,15.90
2023-03-08T07:44:46.644Z,18.17
2023-03-08T07:46:49.401Z,15.90
2023-03-08T07:48:55.287Z,17.40
2023-03-08T07:51:03.020Z,16.83
2023-03-08T07:53:07.759Z,18.80
2023-03-08T07:55:11.909Z,14.85
2023-03-08T07:57:16.898Z,18.65
2023-03-08T07:59:19.902Z,15.68
2023-03-08T08:01:22.692Z,16.52
2023-03-08T08:03:25.732Z,17.63
2023-03-08T08:05:28.643Z,16.08
2023-03-08T08:07:32.340Z,17.02
2023-03-08T08:09:37.381Z,18.25
2023-03-08T08:11:40.130Z,15.65
2023-03-08T08:13:46.583Z,15.80
2023-03-08T08:15:59.225Z,18.42
2023-03-08T08:18:02.264Z,13.93
2023-03-08T08:20:06.790Z,16.67
2023-03-08T08:22:09.544Z,15.23
2023-03-08T08:24:12.284Z,14.02
2023-03-08T08:26:17.158Z,16.83
2023-03-08T08:28:19.885Z,16.00
2023-03-08T08:30:24.012Z,14.65
2023-03-08T08:32:27.281Z,15.32
2023-03-08T08:34:30.051Z,17.25
2023-03-08T08:36:32.858Z,15.90
2023-03-08T08:38:36.379Z,14.93
2023-03-08T08:40:39.171Z,12.82
2023-03-08T08:42:41.894Z,15.45
2023-03-08T08:44:44.634Z,15.38
2023-03-08T08:46:48.747Z,15.45
2023-03-08T08:48:51.491Z,14.82
2023-03-08T08:50:54.978Z,15.32
2023-03-08T08:52:57.830Z,16.67
2023-03-08T08:55:01.687Z,16.05
2023-03-08T08:57:04.524Z,15.18
2023-03-08T08:59:07.224Z,16.45
2023-03-08T09:01:17.941Z,16.92
2023-03-08T09:03:22.026Z,16.88
2023-03-08T09:05:24.853Z,14.68
2023-03-08T09:07:27.633Z,15.38
2023-03-08T09:09:30.329Z,15.90
2023-03-08T09:11:39.733Z,14.50
2023-03-08T09:13:47.778Z,16.10
2023-03-08T09:15:50.508Z,14.38
2023-03-08T09:17:53.456Z,15.13
2023-03-08T09:19:57.544Z,18.30
2023-03-08T09:22:00.241Z,15.20
2023-03-08T09:24:05.563Z,15.45
2023-03-08T09:26:08.293Z,14.82
2023-03-08T09:28:12.308Z,17.33
2023-03-08T09:30:17.343Z,13.20
2023-03-08T09:32:20.138Z,15.35
2023-03-08T09:34:22.936Z,13.35
2023-03-08T09:36:28.510Z,16.23
2023-03-08T09:38:31.243Z,15.77
2023-03-08T09:40:40.419Z,12.68
2023-03-08T09:42:45.112Z,13.75
2023-03-08T09:45:02.460Z,12.57
2023-03-08T09:47:14.236Z,15.82
2023-03-08T09:49:21.742Z,12.52
2023-03-08T09:51:28.280Z,13.23
2023-03-08T09:53:38.345Z,12.68
2023-03-08T09:55:46.783Z,10.07
2023-03-08T09:57:53.576Z,10.48
2023-03-08T09:59:58.626Z,10.82
2023-03-08T10:02:05.886Z,9.13
2023-03-08T10:04:40.592Z,12.07
2023-03-08T10:06:50.959Z,10.02
2023-03-08T10:09:02.712Z,8.25
2023-03-08T10:11:08.229Z,19.92
2023-03-08T10:13:32.999Z,46.45
2023-03-08T10:15:41.181Z,9.82
2023-03-08T10:17:50.174Z,8.98
2023-03-08T10:19:58.002Z,8.75
2023-03-08T10:22:08.058Z,5.75
2023-03-08T10:24:17.201Z,4.97
2023-03-08T10:26:20.620Z,4.32
2023-03-08T10:28:26.339Z,3.45
2023-03-08T10:30:34.731Z,3.55
2023-03-08T10:32:43.887Z,1.98
2023-03-08T10:34:47.054Z,1.98
2023-03-08T10:36:52.550Z,1.08
2023-03-08T10:39:04.898Z,1.60
2023-03-08T10:41:16.049Z,1.95
2023-03-08T10:43:26.454Z,2.97
2023-03-08T10:45:30.782Z,1.45
2023-03-08T10:47:35.517Z,1.33
2023-03-08T10:49:38.207Z,1.80
2023-03-08T10:51:40.863Z,1.55
2023-03-08T10:53:54.416Z,1.05
2023-03-08T10:55:58.531Z,2.58
2023-03-08T10:58:03.731Z,1.98
2023-03-08T11:00:22.128Z,2.28
2023-03-08T11:02:25.214Z,1.58
2023-03-08T11:04:29.521Z,1.60
2023-03-08T11:06:35.104Z,1.83
2023-03-08T11:08:39.868Z,0.90
2023-03-08T11:10:42.677Z,0.88
2023-03-08T11:12:46.022Z,3.78
2023-03-08T11:14:50.686Z,0.70
2023-03-08T11:17:03.085Z,0.80
2023-03-08T11:19:22.461Z,1.00
2023-03-08T11:21:33.317Z,0.90
2023-03-08T11:23:42.137Z,0.73
2023-03-08T11:25:47.509Z,0.75
2023-03-08T11:28:08.199Z,0.55
2023-03-08T11:30:23.927Z,1.23
2023-03-08T11:32:44.665Z,0.80
2023-03-08T11:34:59.967Z,1.13
2023-03-08T11:37:10.872Z,1.15
2023-03-08T11:39:19.842Z,3.72
2023-03-08T11:41:28.922Z,1.00
2023-03-08T11:43:49.265Z,0.57
2023-03-08T11:45:58.870Z,2.35
2023-03-08T11:48:16.192Z,1.15
2023-03-08T11:50:23.096Z,0.80
2023-03-08T11:52:36.124Z,0.70
2023-03-08T11:55:02.061Z,1.33
2023-03-08T11:57:08.858Z,2.28
2023-03-08T11:59:18.870Z,0.85
2023-03-08T12:01:26.729Z,0.82
2023-03-08T12:03:34.999Z,1.38
2023-03-08T12:05:41.997Z,1.90
2023-03-08T12:07:48.738Z,0.90
2023-03-08T12:09:57.566Z,0.93
2023-03-08T12:12:05.184Z,2.33
2023-03-08T12:14:18.025Z,1.15
2023-03-08T12:16:27.205Z,1.20
2023-03-08T12:18:38.450Z,1.15
2023-03-08T12:20:44.123Z,0.60
2023-03-08T12:22:51.972Z,0.63
2023-03-08T12:25:00.208Z,0.85
2023-03-08T12:27:08.196Z,8.73
2023-03-08T12:29:17.336Z,1.63
2023-03-08T12:31:29.509Z,0.95
2023-03-08T12:33:33.988Z,0.95
2023-03-08T12:35:38.493Z,9.00
2023-03-08T12:37:41.318Z,0.98
2023-03-08T12:39:44.069Z,1.40
2023-03-08T12:41:58.628Z,4.80
2023-03-08T12:44:04.696Z,2.45
2023-03-08T12:46:09.678Z,1.70
2023-03-08T12:48:22.875Z,1.30
2023-03-08T12:50:26.204Z,0.93
2023-03-08T12:52:34.779Z,1.20
2023-03-08T12:54:37.573Z,0.82
2023-03-08T12:56:52.486Z,2.35
2023-03-08T12:58:57.027Z,1.10
2023-03-08T13:01:02.641Z,0.65
2023-03-08T13:03:08.141Z,1.38
2023-03-08T13:05:31.779Z,0.70
2023-03-08T13:07:39.508Z,0.65
2023-03-08T13:09:51.277Z,1.60
2023-03-08T13:12:02.831Z,1.83
2023-03-08T13:14:06.071Z,1.10
2023-03-08T13:16:30.199Z,1.38
2023-03-08T13:18:33.215Z,1.13
2023-03-08T13:20:55.662Z,0.68
2023-03-08T13:23:03.912Z,0.63
2023-03-08T13:25:17.040Z,1.83
2023-03-08T13:27:26.960Z,0.77
2023-03-08T13:29:31.882Z,2.13
2023-03-08T13:31:34.712Z,0.93
2023-03-08T13:33:40.131Z,1.20
2023-03-08T13:35:44.398Z,1.52
2023-03-08T13:37:54.311Z,0.70
2023-03-08T13:39:59.851Z,1.17
2023-03-08T13:42:11.008Z,0.77
2023-03-08T13:44:17.298Z,1.00
2023-03-08T13:46:21.020Z,0.93
2023-03-08T13:48:27.227Z,1.48
2023-03-08T13:50:32.388Z,2.70
2023-03-08T13:52:39.482Z,1.08
2023-03-08T13:54:46.735Z,0.90
2023-03-08T13:56:54.068Z,0.90
2023-03-08T13:58:59.582Z,0.55
2023-03-08T14:01:05.836Z,1.00
2023-03-08T14:03:08.670Z,2.38
2023-03-08T14:05:18.751Z,1.65
2023-03-08T14:07:25.180Z,3.13
2023-03-08T14:09:29.465Z,1.33
2023-03-08T14:11:34.482Z,1.00
2023-03-08T14:13:39.503Z,2.03
2023-03-08T14:15:50.206Z,1.58
2023-03-08T14:17:53.197Z,2.10
2023-03-08T14:19:58.032Z,0.45
2023-03-08T14:22:02.874Z,0.73
2023-03-08T14:24:06.939Z,1.30
2023-03-08T14:28:41.917Z,1.10
2023-03-08T14:30:48.950Z,1.50
2023-03-08T14:33:06.084Z,1.45
2023-03-08T14:35:17.844Z,0.63
2023-03-08T14:37:25.930Z,0.60
2023-03-08T14:39:30.961Z,1.00
2023-03-08T14:41:37.255Z,0.80
2023-03-08T14:43:41.369Z,0.85
2023-03-08T14:45:54.122Z,0.57
2023-03-08T14:47:59.086Z,0.95
2023-03-08T14:50:04.119Z,0.70
2023-03-08T14:52:09.382Z,0.70
2023-03-08T14:54:29.467Z,1.10
2023-03-08T14:56:33.467Z,0.60
2023-03-08T14:58:40.064Z,1.35
2023-03-08T15:00:51.807Z,2.03
2023-03-08T15:02:54.806Z,1.50
2023-03-08T15:04:57.528Z,1.05
2023-03-08T15:07:00.274Z,0.65
2023-03-08T15:09:05.064Z,0.57
2023-03-08T15:11:08.445Z,0.45
2023-03-08T15:13:14.675Z,0.50
2023-03-08T15:15:17.554Z,1.13
2023-03-08T15:17:22.607Z,0.35
2023-03-08T15:19:25.523Z,0.20
2023-03-08T15:21:29.908Z,1.73
2023-03-08T15:23:36.149Z,3.45
2023-03-08T15:25:39.496Z,10.48
2023-03-08T15:27:42.279Z,3.17
2023-03-08T15:29:44.983Z,1.42
2023-03-08T15:31:47.722Z,1.42
2023-03-08T15:33:51.784Z,0.40
2023-03-08T15:35:54.614Z,1.15
2023-03-08T15:37:57.422Z,0.70
2023-03-08T15:40:00.160Z,0.68
2023-03-08T15:42:02.888Z,1.48
2023-03-08T15:44:05.609Z,0.60
2023-03-08T15:46:11.575Z,0.50
2023-03-08T15:48:18.020Z,1.02
2023-03-08T15:50:22.091Z,0.60
2023-03-08T15:52:30.221Z,0.80
2023-03-08T15:54:33.522Z,2.95
2023-03-08T15:56:36.309Z,1.13
2023-03-08T15:58:39.054Z,2.47
2023-03-08T16:00:41.771Z,1.30
2023-03-08T16:02:44.556Z,0.75
2023-03-08T16:04:48.977Z,1.58
2023-03-08T16:06:53.074Z,0.75
2023-03-08T16:08:55.840Z,0.98
2023-03-08T16:11:03.709Z,1.58
2023-03-08T16:13:06.544Z,0.55
2023-03-08T16:15:10.777Z,1.02
2023-03-08T16:17:16.180Z,1.23
2023-03-08T16:19:19.335Z,1.05
2023-03-08T16:21:22.051Z,0.68
2023-03-08T16:23:26.653Z,3.20
2023-03-08T16:25:29.436Z,2.90
2023-03-08T16:27:34.513Z,4.03
2023-03-08T16:29:38.244Z,5.13
2023-03-08T16:31:41.075Z,5.68
2023-03-08T16:33:43.844Z,3.60
2023-03-08T16:35:50.255Z,8.57
2023-03-08T16:37:54.122Z,6.88
2023-03-08T16:40:01.886Z,9.15
2023-03-08T16:42:04.776Z,4.68
2023-03-08T16:44:08.181Z,6.15
2023-03-08T16:46:16.139Z,2.20
2023-03-08T16:48:19.024Z,1.45
2023-03-08T16:50:21.753Z,5.28
2023-03-08T16:52:24.479Z,3.28
2023-03-08T16:54:27.241Z,2.33
2023-03-08T16:56:31.520Z,0.90
2023-03-08T16:58:34.298Z,2.05
2023-03-08T17:00:37.077Z,3.42
2023-03-08T17:02:40.484Z,2.60
2023-03-08T17:04:43.327Z,1.70
2023-03-08T17:06:46.343Z,1.80
2023-03-08T17:08:49.911Z,1.50
2023-03-08T17:10:52.604Z,1.70
2023-03-08T17:12:56.649Z,1.33
2023-03-08T17:14:59.387Z,1.88
2023-03-08T17:17:02.165Z,1.35
2023-03-08T17:19:06.390Z,1.88
2023-03-08T17:21:09.696Z,3.65
2023-03-08T17:23:13.502Z,3.28
2023-03-08T17:25:16.394Z,1.90
2023-03-08T17:27:19.143Z,3.75
2023-03-08T17:29:23.759Z,4.25
2023-03-08T17:31:26.467Z,1.25
2023-03-08T17:33:29.364Z,2.08
2023-03-08T17:35:32.177Z,2.10
2023-03-08T17:37:41.714Z,3.80
2023-03-08T17:39:44.580Z,1.83
2023-03-08T17:41:47.601Z,2.47
2023-03-08T17:43:50.737Z,1.80
2023-03-08T17:46:02.220Z,2.50
2023-03-08T17:48:05.288Z,1.42
2023-03-08T17:50:09.859Z,1.98
2023-03-08T17:52:12.592Z,1.63
2023-03-08T17:54:15.385Z,1.30
2023-03-08T17:56:21.286Z,2.75
2023-03-08T17:58:24.374Z,1.75
2023-03-08T18:00:27.130Z,1.55
2023-03-08T18:02:31.198Z,1.50
2023-03-08T18:04:33.973Z,1.85
2023-03-08T18:06:39.070Z,1.88
2023-03-08T18:08:41.879Z,2.08
2023-03-08T18:10:44.702Z,3.90
2023-03-08T18:12:47.773Z,3.50
2023-03-08T18:14:52.667Z,1.55
2023-03-08T18:16:55.423Z,2.15
2023-03-08T18:18:59.482Z,1.50
2023-03-08T18:21:12.620Z,1.70
2023-03-08T18:23:17.282Z,2.33
2023-03-08T18:25:20.481Z,1.75
2023-03-08T18:27:23.207Z,2.60
2023-03-08T18:29:26.042Z,7.57
2023-03-08T18:31:31.006Z,17.45
2023-03-08T18:33:33.738Z,2.35
2023-03-08T18:35:37.845Z,3.38
2023-03-08T18:37:40.553Z,1.60
2023-03-08T18:39:43.264Z,1.65
2023-03-08T18:41:46.032Z,1.90
2023-03-08T18:43:48.959Z,2.75
2023-03-08T18:45:52.558Z,1.65
2023-03-08T18:47:55.203Z,1.85
2023-03-08T18:49:57.840Z,1.80
2023-03-08T18:52:01.867Z,3.13
2023-03-08T18:54:05.426Z,2.15
2023-03-08T18:56:08.644Z,2.13
2023-03-08T18:58:11.707Z,3.63
2023-03-08T19:00:15.610Z,3.67
2023-03-08T19:02:18.536Z,2.28
2023-03-08T19:04:21.551Z,1.75
2023-03-08T19:06:24.211Z,3.67
2023-03-08T19:08:29.182Z,3.65
2023-03-08T19:10:33.300Z,2.58
2023-03-08T19:12:37.911Z,2.08
2023-03-08T19:14:40.796Z,1.80
2023-03-08T19:16:43.753Z,1.40
2023-03-08T19:18:46.716Z,1.63
2023-03-08T19:20:49.426Z,2.30
2023-03-08T19:22:52.206Z,3.78
2023-03-08T19:24:56.342Z,1.80
2023-03-08T19:27:03.152Z,2.60
2023-03-08T19:29:08.586Z,0.80
2023-03-08T19:31:17.581Z,1.48
2023-03-08T19:33:30.549Z,0.80
2023-03-08T19:35:35.245Z,0.80
2023-03-08T19:37:38.157Z,1.95
2023-03-08T19:39:43.577Z,2.05
2023-03-08T19:41:50.697Z,0.95
2023-03-08T19:43:53.351Z,0.70
2023-03-08T19:45:56.677Z,1.92
2023-03-08T19:47:59.329Z,1.33
2023-03-08T19:50:01.964Z,1.48
2023-03-08T19:52:06.742Z,1.02
2023-03-08T19:54:10.308Z,1.42
2023-03-08T19:56:16.119Z,1.52
2023-03-08T19:58:21.335Z,1.30
2023-03-08T20:00:24.499Z,1.73
2023-03-08T20:02:28.209Z,0.95
2023-03-08T20:04:31.028Z,1.33
2023-03-08T20:06:36.368Z,0.88
2023-03-08T20:08:40.420Z,0.80
2023-03-08T20:10:43.335Z,0.95
2023-03-08T20:12:47.079Z,1.40
2023-03-08T20:14:51.199Z,0.70
2023-03-08T20:16:53.947Z,0.85
2023-03-08T20:18:57.451Z,0.60
2023-03-08T20:21:02.160Z,0.80
2023-03-08T20:23:05.063Z,0.82
2023-03-08T20:25:11.420Z,0.80
2023-03-08T20:27:14.157Z,1.65
2023-03-08T20:29:17.453Z,2.42
2023-03-08T20:31:21.516Z,2.42
2023-03-08T20:33:24.241Z,2.45
2023-03-08T20:35:27.024Z,6.28
2023-03-08T20:37:29.809Z,2.78
2023-03-08T20:39:32.576Z,6.00
2023-03-08T20:41:35.383Z,3.40
2023-03-08T20:43:38.748Z,5.18
2023-03-08T20:45:41.731Z,4.38
2023-03-08T20:47:46.597Z,3.70
2023-03-08T20:49:49.733Z,6.90
2023-03-08T20:51:52.508Z,6.13
2023-03-08T20:53:55.783Z,3.17
2023-03-08T20:55:58.839Z,2.13
2023-03-08T20:58:01.669Z,1.90
2023-03-08T21:00:06.862Z,1.70
2023-03-08T21:02:12.223Z,2.03
2023-03-08T21:04:16.718Z,3.17
2023-03-08T21:06:21.806Z,1.83
2023-03-08T21:08:25.140Z,2.58
2023-03-08T21:10:28.020Z,2.38
2023-03-08T21:12:30.804Z,3.05
2023-03-08T21:14:33.544Z,1.27
2023-03-08T21:16:36.385Z,1.35
2023-03-08T21:18:39.219Z,1.92
2023-03-08T21:20:44.895Z,2.15
2023-03-08T21:22:47.839Z,1.77
2023-03-08T21:24:50.592Z,1.90
2023-03-08T21:26:53.856Z,1.65
2023-03-08T21:28:58.776Z,2.55
2023-03-08T21:31:01.524Z,1.48
2023-03-08T21:33:04.267Z,3.20
2023-03-08T21:35:07.778Z,2.30
2023-03-08T21:37:11.884Z,1.98
2023-03-08T21:39:14.889Z,2.50
2023-03-08T21:41:18.733Z,2.58
2023-03-08T21:43:21.410Z,2.10
2023-03-08T21:45:24.133Z,2.38
2023-03-08T21:47:26.946Z,1.52
2023-03-08T21:49:35.023Z,3.05
2023-03-08T21:51:38.407Z,3.20
2023-03-08T21:53:43.141Z,1.58
2023-03-08T21:55:45.834Z,2.25
2023-03-08T21:57:48.834Z,2.85
2023-03-08T21:59:51.796Z,3.17
2023-03-08T22:01:58.366Z,3.10
2023-03-08T22:04:02.868Z,3.40
2023-03-08T22:06:05.792Z,2.88
2023-03-08T22:08:08.528Z,4.38
2023-03-08T22:10:14.775Z,2.03
2023-03-08T22:12:17.935Z,4.85
2023-03-08T22:14:20.662Z,2.67
2023-03-08T22:16:24.008Z,2.53
2023-03-08T22:18:26.762Z,1.90
2023-03-08T22:20:29.446Z,3.28
2023-03-08T22:22:32.189Z,2.53
2023-03-08T22:24:34.932Z,2.10
2023-03-08T22:26:39.050Z,5.28
2023-03-08T22:28:41.803Z,2.58
2023-03-08T22:30:44.537Z,2.00
2023-03-08T22:32:47.970Z,4.13
2023-03-08T22:34:50.982Z,4.45
2023-03-08T22:36:54.354Z,3.25
2023-03-08T22:38:57.097Z,2.85
2023-03-08T22:40:59.868Z,4.90
2023-03-08T22:43:03.904Z,6.03
2023-03-08T22:45:07.866Z,3.25
2023-03-08T22:47:10.609Z,3.05
2023-03-08T22:49:14.907Z,2.58
2023-03-08T22:51:21.260Z,2.63
2023-03-08T22:53:24.034Z,2.20
2023-03-08T22:55:26.895Z,3.10
2023-03-08T22:57:29.605Z,4.47
2023-03-08T22:59:33.701Z,2.65
2023-03-08T23:01:36.659Z,2.55
2023-03-08T23:03:40.420Z,3.30
2023-03-08T23:05:43.157Z,3.55
2023-03-08T23:07:46.504Z,4.00
2023-03-08T23:09:49.323Z,2.60
2023-03-08T23:11:52.063Z,2.40
2023-03-08T23:13:54.840Z,4.45
2023-03-08T23:15:59.006Z,3.85
2023-03-08T23:18:01.805Z,2.72
2023-03-08T23:20:06.640Z,2.33
2023-03-08T23:22:09.409Z,3.50
2023-03-08T23:24:12.890Z,1.83
2023-03-08T23:26:17.861Z,1.73
2023-03-08T23:28:20.820Z,2.63
2023-03-08T23:30:23.845Z,3.33
2023-03-08T23:32:28.018Z,2.25
2023-03-08T23:34:30.841Z,1.30
2023-03-08T23:36:34.876Z,3.33
2023-03-08T23:38:37.743Z,2.00
2023-03-08T23:40:40.641Z,1.95
2023-03-08T23:42:43.400Z,2.30
2023-03-08T23:44:46.186Z,4.78
2023-03-08T23:46:48.969Z,2.15
2023-03-08T23:48:57.701Z,1.90
2023-03-08T23:51:00.542Z,2.97
2023-03-08T23:53:03.250Z,1.88
2023-03-08T23:55:07.006Z,4.40
2023-03-08T23:57:09.801Z,1.65
2023-03-08T23:59:15.823Z,1.45
